Buckeye, Indiana
Current Conditions -  °F | °C
As of 6:55 PM on Monday 20 Oct 2014 (Local Time) from KHHG Reporting Station
Overcast Overcast  
Wind Chill: 59°   Ceiling: 6500
Heat Index: 59°   Visibility: 10mi
Dew Point: 48°   Wind: 6mph
Humidity: 67%   Direction: 320°NW
Pressure: 29.86"   Gusts: NA
Location:  40.6897°N, 85.3916°W
Report Text: KHHG 202255Z AUTO 32005KT 10SM SCT041 BKN065 OVC080 15/09 A2986 RMK AO2 T01510090
Loading
Personal Weather Stations






























Interactive Weather Map
Tropical Storm Tracking
New forecast layout! Learn more

10-Day Weather Forecast

Advertisements
Track Severe Weather on mobile